Sheffield, Alabama
Current Conditions -  °F | °C
As of 9:53 PM on Wednesday 17 Dec 2014 (Local Time) from KMSL Reporting Station
Clear Clear  
Wind Chill: 40°   Ceiling: Unl
Heat Index: 40°   Visibility: 10mi
Dew Point: 33°   Wind: 3mph
Humidity: 77%   Direction: 80°E
Pressure: 30.24"   Gusts: NA
Location:  34.76°N, 87.69°W
Report Text: KMSL 180353Z AUTO 08003KT 10SM CLR 04/01 A3024 RMK AO2 SLP243 T00440006
Loading
Personal Weather Stations






























Interactive Weather Map New forecast layout! Learn more

10-Day Weather Forecast

Advertisements
Track Severe Weather on mobile